29 september 2022

Tijd Code Weer Temp. Zicht Plafond Wind METAR/SPECI
21:55
V
14 °C 8 km 4.000 ft Var 000° 0 kt METAR LIPI 291955Z /////KT 8000 TSRA SCT025CB BKN040 14/14 Q1001 RMK OVC VIS MIN 8000 WIND THR06 06008KT WIND THR24 03008KT BLU
20:55
V
14 °C 8 km 4.000 ft Var 000° 0 kt METAR LIPI 291855Z /////KT 8000 -TSRA SCT025CB BKN040 14/14 Q1001
17:55
V
17 °C 8 km 3.000 ft 070° 070° 4 kt METAR LIPI 291555Z 07004KT 8000 -TS RA SCT025CB BKN030 17/16 Q0999 RMK OVC VIS MIN 6000S WIND THR06 09006KT WIND THR24 07003KT WHT
16:55
V
18 °C 10 km+ - 040° 040° 6 kt METAR LIPI 291455Z 04006KT 9999 FEW040 SCT070 18/14 Q1000
15:55
V
19 °C 10 km+ - 050° 050° 6 kt METAR LIPI 291355Z 05006KT 9999 FEW040 SCT070 19/15 Q1000
14:55
V
19 °C 10 km+ - 330° 330° 3 kt METAR LIPI 291255Z 33003KT 9999 FEW025 SCT040 19/14 Q0999
14:12
V
18 °C 10 km+ - Var Var 3 kt METAR LIPI 291212Z VRB03KT 9999 FEW025 SCT040 18/14 Q0999 RETS RMK SCT VIS MIN 9999 WIND THR06 33004KT WIND THR24 33003KT BLU
13:55
V
16 °C 10 km+ - 280° 280° 5 kt METAR LIPI 291155Z 28005KT 9999 -TS RA FEW015 FEW025CB SCT040 16/13 Q0999
12:55
V
19 °C 10 km+ 4.000 ft 130° 130° 6 kt METAR LIPI 291055Z 13006KT 9999 TS FEW010 FEW030CB BKN040 19/18 Q0998
11:55
V
18 °C 10 km+ 4.000 ft 060° 060° 4 kt METAR LIPI 290955Z 06004KT 9999 -TS RA FEW025CB BKN040 18/15 Q0999
11:22
V
19 °C 10 km+ - 050° 050° 5 kt METAR LIPI 290922Z 05005KT 9999 TS FEW035CB SCT040 19/15 Q0999 RMK BKN VIS MIN 9999 WIND THR06 09004KT WIND THR24 08005KT BLU
10:55
V
18 °C 10 km+ - 040° 040° 4 kt METAR LIPI 290855Z 04004KT 9999 SCT040 SCT070 18/14 Q0999
09:55
V
18 °C 10 km+ - 360° 360° 4 kt METAR LIPI 290755Z 36004KT 9999 SCT050 SCT080 18/14 Q0998
08:55
V
15 °C 10 km+ - 340° 340° 5 kt METAR LIPI 290655Z 34005KT 9999 FEW040 15/12 Q0998
07:55
V
13 °C 10 km+ - 330° 330° 4 kt METAR LIPI 290555Z 33004KT 9999 SCT018 SCT040 13/11 Q0998
06:55
V
13 °C 10 km+ - 330° 330° 4 kt METAR LIPI 290455Z 33004KT 9999 SCT080 13/11 Q0998 RMK SCT VIS MIN 9999 WIND THR06 02003KT WIND THR24 34005KT BLU
05:55
V
13 °C 10 km+ - 350° 350° 6 kt METAR LIPI 290355Z 35006KT 9999 SCT100 13/11 Q0998
04:55
V
14 °C 10 km+ 9.000 ft 320° 320° 4 kt METAR LIPI 290255Z 32004KT 9999 SCT060 BKN090 14/12 Q0998
03:55
V
14 °C 10 km+ 8.000 ft 330° 330° 5 kt METAR LIPI 290155Z 33005KT 9999 SCT060 BKN080 14/11 Q0998
02:55
V
14 °C 10 km+ 7.000 ft 330° 330° 4 kt METAR LIPI 290055Z 33004KT 9999 FEW050 OVC070 14/12 Q0998
01:55
V
14 °C 10 km+ 6.000 ft 010° 010° 4 kt METAR LIPI 282355Z 01004KT 9999 FEW050 BKN060 14/12 Q0998
00:55
V
14 °C 10 km+ 10.000 ft 040° 040° 5 kt METAR LIPI 282255Z 04005KT 9999 SCT060 BKN100 14/12 Q0998 RMK BKN VIS MIN 9999 WIND THR06 04005KT WIND THR24 03004KT BLU

28 september 2022

Tijd Code Weer Temp. Zicht Plafond Wind METAR/SPECI
23:55
V
14 °C 10 km+ - 030° 030° 4 kt METAR LIPI 282155Z 03004KT 9999 SCT050 14/12 Q0998
22:55
V
15 °C 10 km+ - 010° 010° 5 kt METAR LIPI 282055Z 01005KT 9999 SCT030 15/13 Q0998
21:55
V
14 °C 10 km+ - 010° 010° 4 kt METAR LIPI 281955Z 01004KT 9999 FEW030 SCT050 14/12 Q0998
20:55
V
15 °C 10 km+ - 350° 350° 4 kt METAR LIPI 281855Z 35004KT 9999 -DZ FEW025 SCT100 15/14 Q0998
19:55
V
16 °C 10 km+ 4.000 ft 320° 320° 3 kt METAR LIPI 281755Z 32003KT 9999 -RA SCT025 BKN040 16/15 Q0999
18:55
V
18 °C 10 km+ 9.000 ft 310° 310° 3 kt METAR LIPI 281655Z 31003KT 9999 -DZ SCT025 BKN090 18/15 Q0999 RMK OVC VIS MIN 9999 WIND THR06 34004KT WIND THR24 34002KT BLU
17:55
V
18 °C 10 km+ 9.000 ft 180° 180° 2 kt METAR LIPI 281555Z 18002KT 9999 FEW025 SCT035 BKN090 18/14 Q0999
16:55
V
19 °C 10 km+ 9.000 ft 140° 140° 3 kt METAR LIPI 281455Z 14003KT 9999 -RA FEW025 SCT035 BKN090 19/14 Q0999
15:55
V
19 °C 10 km+ - 350° 350° 3 kt METAR LIPI 281355Z 35003KT 9999 FEW025 SCT035 19/13 Q1000
14:55
V
18 °C 10 km+ - 360° 360° 3 kt METAR LIPI 281255Z 36003KT 260V060 9999 SCT020 SCT025 18/12 Q1000
13:55
V
18 °C 10 km+ - 020° 020° 6 kt METAR LIPI 281155Z 02006KT 9999 FEW020 SCT025 18/12 Q1001
12:55
V
17 °C 10 km+ 4.500 ft 040° 040° 7 kt METAR LIPI 281055Z 04007KT 9999 SCT020 SCT025 BKN045 17/11 Q1001
11:55
V
16 °C 10 km+ 4.500 ft 030° 030° 5 kt METAR LIPI 280955Z 03005KT 9999 SCT020 SCT025 BKN045 16/11 Q1001
10:55
V
15 °C 10 km+ 4.500 ft 010° 010° 5 kt METAR LIPI 280855Z 01005KT 9999 FEW020 SCT025 BKN045 15/10 Q1001
09:55
V
14 °C 10 km+ 5.000 ft 350° 350° 5 kt METAR LIPI 280755Z 35005KT 9999 SCT020 SCT030 BKN050 14/09 Q1001
08:55
M
12 °C 10 km+ 2.500 ft 350° 350° 6 kt METAR LIPI 280655Z 35006KT 9999 BKN025 SCT060 12/09 Q1001
07:55
V
11 °C 10 km+ - 350° 350° 6 kt METAR LIPI 280555Z 35006KT 9999 SCT050 11/08 Q1002
06:55
V
10 °C 10 km+ - 340° 340° 5 kt METAR LIPI 280455Z 34005KT 9999 SCT050 SCT100 10/08 Q1002
05:55
V
10 °C 10 km+ - 330° 330° 3 kt METAR LIPI 280355Z 33003KT 9999 SCT060 SCT093 10/07 Q1002
04:55
V
10 °C 10 km+ - 350° 350° 5 kt METAR LIPI 280255Z 35005KT 9999 SCT083 10/07 Q1002
03:55
V
10 °C 10 km+ - 340° 340° 6 kt METAR LIPI 280155Z 34006KT CAVOK 10/08 Q1002
02:55
V
10 °C 10 km+ - 340° 340° 7 kt METAR LIPI 280055Z 34007KT CAVOK 10/08 Q1001
01:55
V
10 °C 10 km+ - 340° 340° 6 kt METAR LIPI 272355Z 34006KT CAVOK 10/08 Q1002 RMK SKC VIS MIN 9999 WIND THR06 02007KT WIND THR24 01005KT BLU
00:55
V
11 °C 10 km+ - 010° 010° 6 kt METAR LIPI 272255Z 01006KT CAVOK 11/09 Q1002 RMK SKC VIS MIN 9999 WIND THR06 04006KT WIND THR24 01005KT BLU

27 september 2022

Tijd Code Weer Temp. Zicht Plafond Wind METAR/SPECI
23:55
V
13 °C 10 km+ - 020° 020° 6 kt METAR LIPI 272155Z 02006KT CAVOK 13/10 Q1002
22:55
V
13 °C 10 km+ - 080° 080° 3 kt METAR LIPI 272055Z 08003KT 9999 SCT083 13/10 Q1002 RMK OVC BKN120 VIS MIN 9999 WIND THR06 14003KT WIND THR24 12002KT BLU
21:55
V
13 °C 10 km+ 10.000 ft 340° 340° 4 kt METAR LIPI 271955Z 34004KT 9999 SCT080 BKN100 13/09 Q1001 RMK OVC VIS MIN 9999 WIND THR06 02005KT WIND THR24 34003KT BLU
20:55
V
14 °C 10 km+ 11.000 ft 360° 360° 6 kt METAR LIPI 271855Z 36006KT 9999 SCT080 BKN110 14/09 Q1001
19:55
V
14 °C 10 km+ 11.000 ft 360° 360° 5 kt METAR LIPI 271755Z 36005KT 9999 SCT070 BKN110 14/10 Q1001
18:55
V
15 °C 10 km+ 11.000 ft 360° 360° 6 kt METAR LIPI 271655Z 36006KT 9999 SCT050 BKN110 15/09 Q1000 RMK OVC VIS MIN 9999 WIND THR06 03007KT WIND THR24 01006KT BLU
17:55
V
16 °C 10 km+ 11.000 ft 360° 360° 7 kt METAR LIPI 271555Z 36007KT 9999 SCT040 BKN110 16/10 Q1000 RMK OVC VIS MIN 9999 WIND THR06 03009KT WIND THR24 01008KT BLU
16:55
V
16 °C 10 km+ - 360° 360° 9 kt METAR LIPI 271455Z 36009KT 9999 VCTS SCT040 SCT090 16/10 Q0999
Oudere gegevens

Met cookies volgen wij en derde partijen jouw internetgedrag binnen onze site. Als je verdergaat gaan we ervan uit dat je dit goedvindt. Meer info